createdAt,value
2022-12-25T00:02:27.246Z,6.90
2022-12-25T00:04:54.206Z,6.90
2022-12-25T00:07:21.057Z,6.90
2022-12-25T00:09:47.908Z,6.90
2022-12-25T00:12:14.731Z,6.90
2022-12-25T00:14:41.668Z,6.90
2022-12-25T00:17:08.562Z,6.80
2022-12-25T00:19:35.393Z,6.80
2022-12-25T00:22:02.288Z,6.80
2022-12-25T00:24:29.205Z,6.80
2022-12-25T00:26:56.076Z,6.90
2022-12-25T00:29:23.266Z,6.90
2022-12-25T00:31:50.086Z,6.70
2022-12-25T00:34:16.988Z,6.90
2022-12-25T00:36:43.955Z,6.80
2022-12-25T00:39:10.860Z,6.80
2022-12-25T00:41:56.330Z,6.90
2022-12-25T00:44:23.255Z,6.90
2022-12-25T00:46:50.179Z,6.90
2022-12-25T00:49:17.122Z,6.80
2022-12-25T00:51:44.153Z,6.80
2022-12-25T00:54:11.039Z,6.80
2022-12-25T00:56:37.896Z,6.80
2022-12-25T00:59:04.752Z,6.80
2022-12-25T01:01:31.788Z,6.80
2022-12-25T01:03:59.129Z,6.80
2022-12-25T01:06:26.848Z,6.80
2022-12-25T01:09:12.390Z,6.80
2022-12-25T01:11:39.330Z,6.70
2022-12-25T01:14:06.593Z,6.70
2022-12-25T01:16:33.566Z,6.70
2022-12-25T01:19:00.513Z,6.70
2022-12-25T01:21:28.062Z,6.70
2022-12-25T01:23:55.064Z,6.60
2022-12-25T01:26:23.753Z,6.80
2022-12-25T01:28:51.725Z,6.80
2022-12-25T01:31:21.468Z,6.90
2022-12-25T01:33:49.208Z,6.90
2022-12-25T01:36:22.176Z,6.90
2022-12-25T01:38:49.699Z,7.00
2022-12-25T01:41:18.582Z,7.00
2022-12-25T01:44:14.538Z,7.10
2022-12-25T01:46:41.903Z,7.10
2022-12-25T01:49:29.562Z,7.10
2022-12-25T01:52:01.671Z,7.10
2022-12-25T01:54:51.552Z,7.00
2022-12-25T01:57:39.283Z,7.10
2022-12-25T02:00:08.519Z,7.10
2022-12-25T02:02:36.002Z,7.10
2022-12-25T02:05:30.662Z,7.10
2022-12-25T02:08:01.953Z,7.10
2022-12-25T02:10:29.123Z,7.10
2022-12-25T02:12:56.243Z,7.10
2022-12-25T02:15:30.022Z,7.10
2022-12-25T02:18:02.664Z,7.10
2022-12-25T02:21:00.713Z,7.10
2022-12-25T02:23:49.095Z,7.10
2022-12-25T02:26:21.056Z,7.10
2022-12-25T02:29:28.460Z,7.10
2022-12-25T02:32:07.903Z,7.10
2022-12-25T02:34:44.255Z,7.10
2022-12-25T02:37:14.852Z,7.10
2022-12-25T02:39:58.567Z,7.10
2022-12-25T02:42:48.168Z,7.20
2022-12-25T02:45:38.834Z,7.20
2022-12-25T02:48:25.297Z,7.20
2022-12-25T02:51:12.456Z,7.20
2022-12-25T02:53:59.674Z,7.10
2022-12-25T02:56:48.095Z,7.20
2022-12-25T02:59:35.531Z,7.10
2022-12-25T03:02:23.106Z,7.20
2022-12-25T03:05:11.427Z,7.10
2022-12-25T03:07:41.071Z,7.20
2022-12-25T03:10:29.426Z,7.10
2022-12-25T03:13:16.353Z,7.10
2022-12-25T03:16:01.944Z,7.10
2022-12-25T03:18:31.136Z,7.10
2022-12-25T03:21:17.948Z,7.10
2022-12-25T03:24:08.431Z,7.10
2022-12-25T03:26:53.881Z,7.10
2022-12-25T03:29:44.374Z,7.10
2022-12-25T03:32:17.170Z,7.20
2022-12-25T03:35:16.452Z,7.20
2022-12-25T03:38:10.545Z,7.20
2022-12-25T03:40:59.001Z,7.20
2022-12-25T03:44:19.190Z,7.20
2022-12-25T03:47:11.099Z,7.10
2022-12-25T03:50:05.017Z,7.20
2022-12-25T03:52:52.023Z,7.20
2022-12-25T03:55:38.467Z,7.30
2022-12-25T03:58:24.301Z,7.30
2022-12-25T04:01:09.540Z,7.30
2022-12-25T04:03:55.077Z,7.30
2022-12-25T04:06:40.576Z,7.30
2022-12-25T04:09:25.956Z,7.30
2022-12-25T04:12:11.410Z,7.30
2022-12-25T04:14:56.751Z,7.30
2022-12-25T04:17:42.046Z,7.30
2022-12-25T04:20:27.929Z,7.30
2022-12-25T04:23:13.192Z,7.40
2022-12-25T04:25:58.795Z,7.30
2022-12-25T04:28:43.999Z,7.30
2022-12-25T04:31:29.530Z,7.30
2022-12-25T04:34:14.828Z,7.30
2022-12-25T04:36:41.828Z,7.30
2022-12-25T04:39:10.124Z,7.30
2022-12-25T04:41:37.032Z,7.40
2022-12-25T04:44:04.096Z,7.30
2022-12-25T04:46:31.058Z,7.40
2022-12-25T04:48:57.963Z,7.40
2022-12-25T04:51:26.025Z,7.40
2022-12-25T04:53:53.600Z,7.40
2022-12-25T04:56:21.517Z,7.40
2022-12-25T04:58:48.857Z,7.40
2022-12-25T05:01:16.682Z,7.40
2022-12-25T05:03:43.801Z,7.40
2022-12-25T05:06:10.733Z,7.50
2022-12-25T05:08:37.672Z,7.50
2022-12-25T05:11:10.779Z,7.50
2022-12-25T05:13:38.640Z,7.50
2022-12-25T05:16:12.805Z,7.50
2022-12-25T05:18:39.848Z,7.60
2022-12-25T05:21:07.872Z,7.60
2022-12-25T05:23:34.908Z,7.60
2022-12-25T05:26:06.560Z,7.60
2022-12-25T05:28:36.787Z,7.60
2022-12-25T05:31:03.705Z,7.60
2022-12-25T05:33:30.579Z,7.70
2022-12-25T05:35:57.437Z,7.70
2022-12-25T05:38:24.280Z,7.80
2022-12-25T05:40:51.749Z,7.80
2022-12-25T05:43:19.638Z,7.80
2022-12-25T05:45:46.513Z,7.90
2022-12-25T05:48:13.561Z,7.90
2022-12-25T05:50:40.432Z,7.90
2022-12-25T05:53:09.538Z,8.00
2022-12-25T05:55:37.762Z,8.00
2022-12-25T05:58:06.243Z,7.90
2022-12-25T06:00:33.623Z,8.00
2022-12-25T06:03:00.926Z,8.00
2022-12-25T06:05:27.910Z,8.00
2022-12-25T06:07:54.774Z,8.00
2022-12-25T06:10:21.734Z,8.00
2022-12-25T06:12:48.838Z,8.00
2022-12-25T06:15:15.937Z,8.00
2022-12-25T06:17:42.755Z,8.00
2022-12-25T06:20:10.248Z,8.00
2022-12-25T06:22:37.154Z,8.00
2022-12-25T06:25:04.274Z,8.00
2022-12-25T06:27:31.163Z,8.00
2022-12-25T06:29:58.007Z,8.00
2022-12-25T06:32:24.831Z,8.10
2022-12-25T06:34:51.838Z,8.10
2022-12-25T06:37:18.793Z,8.10
2022-12-25T06:39:47.510Z,8.10
2022-12-25T06:42:14.319Z,8.10
2022-12-25T06:44:41.132Z,8.10
2022-12-25T06:47:07.958Z,8.10
2022-12-25T06:49:34.785Z,8.00
2022-12-25T06:52:01.695Z,8.10
2022-12-25T06:54:28.610Z,8.10
2022-12-25T06:56:55.488Z,8.10
2022-12-25T06:59:22.417Z,8.00
2022-12-25T07:01:50.403Z,8.00
2022-12-25T07:04:23.388Z,8.00
2022-12-25T07:06:50.229Z,8.10
2022-12-25T07:09:17.284Z,8.00
2022-12-25T07:11:44.258Z,8.00
2022-12-25T07:14:24.533Z,8.00
2022-12-25T07:16:52.079Z,8.00
2022-12-25T07:19:19.373Z,7.90
2022-12-25T07:21:46.336Z,7.90
2022-12-25T07:24:20.833Z,7.90
2022-12-25T07:26:47.866Z,7.90
2022-12-25T07:29:14.780Z,7.90
2022-12-25T07:31:41.792Z,7.90
2022-12-25T07:34:08.951Z,7.90
2022-12-25T07:36:35.829Z,7.80
2022-12-25T07:39:02.755Z,7.90
2022-12-25T07:41:29.721Z,7.90
2022-12-25T07:43:56.550Z,7.90
2022-12-25T07:46:23.589Z,8.00
2022-12-25T07:48:50.512Z,7.90
2022-12-25T07:51:17.403Z,7.90
2022-12-25T07:53:44.262Z,7.90
2022-12-25T07:56:14.370Z,7.90
2022-12-25T07:58:41.838Z,7.90
2022-12-25T08:01:19.532Z,7.90
2022-12-25T08:03:58.279Z,7.90
2022-12-25T08:06:29.926Z,7.90
2022-12-25T08:09:12.770Z,8.00
2022-12-25T08:11:40.166Z,8.00
2022-12-25T08:14:08.610Z,8.00
2022-12-25T08:16:36.125Z,8.00
2022-12-25T08:19:03.172Z,8.10
2022-12-25T08:21:30.024Z,8.10
2022-12-25T08:23:57.238Z,8.10
2022-12-25T08:26:24.219Z,8.10
2022-12-25T08:28:51.234Z,8.10
2022-12-25T08:31:29.756Z,8.20
2022-12-25T08:33:58.620Z,8.20
2022-12-25T08:36:25.723Z,8.20
2022-12-25T08:38:57.029Z,8.30
2022-12-25T08:41:28.073Z,8.30
2022-12-25T08:43:55.105Z,8.30
2022-12-25T08:46:22.051Z,8.30
2022-12-25T08:48:50.211Z,8.30
2022-12-25T08:51:21.101Z,8.40
2022-12-25T08:53:50.447Z,8.40
2022-12-25T08:56:19.059Z,8.40
2022-12-25T08:58:46.226Z,8.40
2022-12-25T09:01:13.617Z,8.40
2022-12-25T09:03:40.752Z,8.40
2022-12-25T09:06:13.299Z,8.40
2022-12-25T09:08:47.741Z,8.40
2022-12-25T09:11:17.156Z,8.40
2022-12-25T09:13:44.137Z,8.50
2022-12-25T09:16:13.623Z,8.50
2022-12-25T09:18:40.965Z,8.50
2022-12-25T09:21:10.771Z,8.50
2022-12-25T09:23:37.897Z,8.50
2022-12-25T09:26:07.414Z,8.60
2022-12-25T09:28:35.029Z,8.60
2022-12-25T09:31:02.319Z,8.60
2022-12-25T09:33:29.271Z,8.50
2022-12-25T09:35:57.817Z,8.60
2022-12-25T09:38:25.381Z,8.60
2022-12-25T09:41:01.794Z,8.60
2022-12-25T09:43:31.659Z,8.60
2022-12-25T09:46:00.334Z,8.70
2022-12-25T09:48:30.607Z,8.70
2022-12-25T09:50:59.990Z,8.70
2022-12-25T09:53:31.103Z,8.70
2022-12-25T09:56:10.879Z,8.70
2022-12-25T09:58:38.147Z,8.70
2022-12-25T10:01:33.370Z,8.70
2022-12-25T10:04:39.194Z,8.70
2022-12-25T10:07:43.401Z,8.70
2022-12-25T10:10:22.580Z,8.80
2022-12-25T10:13:01.504Z,8.80
2022-12-25T10:15:58.513Z,8.80
2022-12-25T10:18:35.228Z,8.70
2022-12-25T10:21:10.955Z,8.80
2022-12-25T10:23:42.863Z,8.80
2022-12-25T10:26:22.225Z,8.90
2022-12-25T10:29:14.517Z,8.90
2022-12-25T10:31:45.204Z,8.90
2022-12-25T10:34:14.003Z,8.90
2022-12-25T10:36:44.581Z,8.90
2022-12-25T10:39:23.813Z,8.90
2022-12-25T10:42:09.462Z,9.00
2022-12-25T10:44:36.438Z,9.00
2022-12-25T10:47:04.708Z,9.00
2022-12-25T10:49:38.425Z,9.00
2022-12-25T10:52:20.070Z,9.00
2022-12-25T10:54:47.009Z,9.10
2022-12-25T10:57:19.804Z,9.10
2022-12-25T10:59:52.449Z,9.10
2022-12-25T11:02:45.420Z,9.10
2022-12-25T11:05:23.346Z,9.00
2022-12-25T11:07:56.161Z,9.10
2022-12-25T11:10:26.065Z,9.10
2022-12-25T11:12:54.029Z,9.10
2022-12-25T11:15:36.733Z,9.10
2022-12-25T11:18:25.072Z,9.10
2022-12-25T11:21:02.282Z,9.00
2022-12-25T11:23:31.269Z,9.00
2022-12-25T11:26:06.964Z,9.10
2022-12-25T11:28:36.248Z,9.00
2022-12-25T11:31:08.577Z,9.10
2022-12-25T11:33:42.141Z,9.10
2022-12-25T11:36:32.608Z,9.10
2022-12-25T11:39:16.325Z,9.00
2022-12-25T11:41:44.122Z,9.10
2022-12-25T11:44:43.992Z,9.00
2022-12-25T11:47:17.729Z,9.00
2022-12-25T11:49:54.905Z,9.00
2022-12-25T11:52:25.967Z,8.90
2022-12-25T11:55:01.997Z,8.90
2022-12-25T11:57:31.255Z,8.90
2022-12-25T12:00:06.540Z,8.90
2022-12-25T12:02:53.748Z,8.90
2022-12-25T12:05:29.558Z,8.80
2022-12-25T12:08:04.747Z,8.80
2022-12-25T12:10:42.485Z,8.80
2022-12-25T12:13:28.708Z,8.90
2022-12-25T12:15:55.791Z,8.90
2022-12-25T12:18:30.351Z,8.90
2022-12-25T12:20:58.712Z,8.90
2022-12-25T12:23:26.900Z,8.90
2022-12-25T12:25:54.031Z,8.90
2022-12-25T12:28:24.981Z,8.90
2022-12-25T12:31:07.142Z,8.90
2022-12-25T12:33:39.186Z,8.90
2022-12-25T12:36:07.144Z,8.90
2022-12-25T12:38:35.351Z,8.90
2022-12-25T12:41:05.583Z,8.90
2022-12-25T12:43:39.776Z,8.90
2022-12-25T12:46:06.802Z,8.90
2022-12-25T12:48:45.683Z,8.90
2022-12-25T12:51:29.114Z,8.90
2022-12-25T12:54:21.007Z,8.80
2022-12-25T12:57:05.203Z,8.80
2022-12-25T12:59:44.703Z,8.80
2022-12-25T13:02:49.201Z,8.80
2022-12-25T13:05:20.285Z,8.80
2022-12-25T13:08:02.299Z,8.80
2022-12-25T13:10:44.137Z,8.70
2022-12-25T13:13:30.435Z,8.70
2022-12-25T13:15:58.055Z,8.70
2022-12-25T13:18:24.963Z,8.70
2022-12-25T13:20:59.642Z,8.70
2022-12-25T13:23:37.504Z,8.70
2022-12-25T13:26:06.019Z,8.70
2022-12-25T13:28:36.940Z,8.70
2022-12-25T13:31:19.172Z,8.70
2022-12-25T13:33:50.508Z,8.70
2022-12-25T13:36:17.775Z,8.70
2022-12-25T13:38:50.760Z,8.70
2022-12-25T13:41:41.831Z,8.70
2022-12-25T13:44:14.390Z,8.70
2022-12-25T13:46:41.215Z,8.70
2022-12-25T13:49:16.141Z,8.70
2022-12-25T13:51:43.294Z,8.60
2022-12-25T13:54:13.155Z,8.60
2022-12-25T13:56:52.095Z,8.60
2022-12-25T13:59:24.668Z,8.60
2022-12-25T14:01:54.072Z,8.60
2022-12-25T14:04:23.955Z,8.60
2022-12-25T14:06:52.348Z,8.60
2022-12-25T14:09:20.103Z,8.60
2022-12-25T14:11:51.211Z,8.60
2022-12-25T14:14:26.009Z,8.60
2022-12-25T14:16:56.908Z,8.60
2022-12-25T14:19:32.389Z,8.60
2022-12-25T14:22:01.078Z,8.60
2022-12-25T14:24:30.017Z,8.60
2022-12-25T14:26:59.340Z,8.50
2022-12-25T14:29:30.024Z,8.50
2022-12-25T14:31:58.833Z,8.50
2022-12-25T14:34:34.221Z,8.50
2022-12-25T14:37:03.424Z,8.50
2022-12-25T14:39:30.308Z,8.50
2022-12-25T14:41:57.880Z,8.50
2022-12-25T14:44:40.104Z,8.50
2022-12-25T14:47:18.692Z,8.40
2022-12-25T14:49:46.391Z,8.40
2022-12-25T14:52:29.822Z,8.40
2022-12-25T14:55:01.201Z,8.40
2022-12-25T14:57:35.986Z,8.40
2022-12-25T15:00:07.981Z,8.40
2022-12-25T15:02:42.733Z,8.40
2022-12-25T15:05:29.570Z,8.40
2022-12-25T15:08:11.648Z,8.40
2022-12-25T15:13:28.331Z,8.40
2022-12-25T15:16:08.686Z,8.40
2022-12-25T15:18:41.415Z,8.40
2022-12-25T15:21:24.690Z,8.40
2022-12-25T15:23:53.222Z,8.30
2022-12-25T15:26:20.134Z,8.40
2022-12-25T15:28:47.048Z,8.40
2022-12-25T15:31:29.223Z,8.40
2022-12-25T15:33:59.520Z,8.40
2022-12-25T15:36:27.572Z,8.40
2022-12-25T15:38:55.001Z,8.40
2022-12-25T15:41:50.009Z,8.40
2022-12-25T15:44:17.702Z,8.40
2022-12-25T15:46:46.035Z,8.40
2022-12-25T15:49:14.358Z,8.40
2022-12-25T15:51:42.373Z,8.40
2022-12-25T15:54:09.913Z,8.40
2022-12-25T15:56:44.525Z,8.40
2022-12-25T15:59:16.896Z,8.40
2022-12-25T16:01:50.768Z,8.40
2022-12-25T16:04:18.361Z,8.40
2022-12-25T16:06:45.528Z,8.40
2022-12-25T16:09:13.532Z,8.40
2022-12-25T16:11:40.744Z,8.40
2022-12-25T16:14:08.059Z,8.40
2022-12-25T16:16:35.334Z,8.40
2022-12-25T16:19:02.534Z,8.40
2022-12-25T16:21:51.556Z,8.40
2022-12-25T16:24:18.378Z,8.40
2022-12-25T16:26:45.272Z,8.40
2022-12-25T16:29:12.154Z,8.40
2022-12-25T16:31:39.998Z,8.40
2022-12-25T16:34:07.702Z,8.40
2022-12-25T16:36:34.952Z,8.50
2022-12-25T16:39:02.684Z,8.50
2022-12-25T16:41:29.520Z,8.50
2022-12-25T16:43:56.347Z,8.50
2022-12-25T16:46:23.633Z,8.50
2022-12-25T16:48:50.721Z,8.50
2022-12-25T16:51:20.304Z,8.50
2022-12-25T16:53:47.983Z,8.50
2022-12-25T16:56:17.710Z,8.50
2022-12-25T16:58:48.745Z,8.60
2022-12-25T17:01:18.320Z,8.60
2022-12-25T17:03:46.113Z,8.60
2022-12-25T17:06:24.857Z,8.60
2022-12-25T17:08:53.062Z,8.60
2022-12-25T17:11:24.293Z,8.50
2022-12-25T17:13:51.153Z,8.50
2022-12-25T17:16:27.633Z,8.50
2022-12-25T17:18:56.054Z,8.50
2022-12-25T17:21:26.528Z,8.50
2022-12-25T17:23:59.615Z,8.50
2022-12-25T17:26:29.135Z,8.50
2022-12-25T17:28:56.389Z,8.50
2022-12-25T17:31:23.571Z,8.50
2022-12-25T17:33:50.680Z,8.50
2022-12-25T17:36:19.850Z,8.60
2022-12-25T17:38:47.631Z,8.60
2022-12-25T17:41:16.238Z,8.60
2022-12-25T17:43:45.759Z,8.70
2022-12-25T17:46:19.078Z,8.80
2022-12-25T17:48:46.578Z,8.70
2022-12-25T17:58:44.357Z,8.70
2022-12-25T18:01:16.630Z,8.70
2022-12-25T18:04:02.111Z,8.60
2022-12-25T18:06:29.715Z,8.60
2022-12-25T18:08:57.629Z,8.60
2022-12-25T18:11:33.011Z,8.60
2022-12-25T18:14:05.128Z,8.60
2022-12-25T18:16:34.960Z,8.70
2022-12-25T18:19:02.329Z,8.60
2022-12-25T18:21:29.685Z,8.50
2022-12-25T18:23:56.680Z,8.40
2022-12-25T18:26:25.042Z,8.40
2022-12-25T18:28:51.993Z,8.40
2022-12-25T18:31:30.331Z,8.30
2022-12-25T18:33:59.783Z,8.30
2022-12-25T18:36:27.803Z,8.40
2022-12-25T18:38:55.457Z,8.30
2022-12-25T18:41:22.833Z,8.20
2022-12-25T18:43:52.779Z,8.30
2022-12-25T18:46:24.714Z,8.30
2022-12-25T18:48:52.927Z,8.30
2022-12-25T18:51:19.871Z,8.30
2022-12-25T18:53:46.825Z,8.30
2022-12-25T18:56:17.211Z,8.30
2022-12-25T18:58:44.875Z,8.40
2022-12-25T19:01:20.890Z,8.40
2022-12-25T19:03:49.240Z,8.50
2022-12-25T19:06:26.993Z,8.50
2022-12-25T19:08:55.663Z,8.60
2022-12-25T19:11:23.060Z,8.70
2022-12-25T19:13:49.934Z,8.70
2022-12-25T19:16:16.934Z,8.70
2022-12-25T19:18:43.992Z,8.60
2022-12-25T19:21:11.201Z,8.70
2022-12-25T19:23:38.627Z,8.70
2022-12-25T19:26:07.401Z,8.70
2022-12-25T19:28:35.020Z,8.70
2022-12-25T19:31:02.344Z,8.70
2022-12-25T19:33:31.639Z,8.70
2022-12-25T19:36:03.588Z,8.70
2022-12-25T19:38:30.579Z,8.70
2022-12-25T19:41:00.725Z,8.70
2022-12-25T19:43:32.550Z,8.70
2022-12-25T19:46:00.405Z,8.60
2022-12-25T19:48:28.107Z,8.60
2022-12-25T19:50:55.043Z,8.60
2022-12-25T19:53:23.821Z,8.50
2022-12-25T19:55:54.448Z,8.50
2022-12-25T19:58:22.711Z,8.40
2022-12-25T20:01:00.349Z,8.40
2022-12-25T20:03:28.208Z,8.40
2022-12-25T20:05:55.171Z,8.40
2022-12-25T20:08:22.355Z,8.40
2022-12-25T20:10:49.615Z,8.50
2022-12-25T20:13:17.154Z,8.50
2022-12-25T20:15:44.035Z,8.40
2022-12-25T20:18:10.852Z,8.40
2022-12-25T20:20:37.893Z,8.30
2022-12-25T20:23:05.017Z,8.20
2022-12-25T20:25:31.981Z,8.20
2022-12-25T20:27:58.859Z,8.20
2022-12-25T20:30:25.876Z,8.20
2022-12-25T20:32:52.722Z,8.20
2022-12-25T20:35:19.661Z,8.20
2022-12-25T20:37:46.585Z,8.20
2022-12-25T20:40:13.670Z,8.10
2022-12-25T20:42:40.527Z,8.20
2022-12-25T20:45:07.770Z,8.10
2022-12-25T20:47:35.206Z,8.10
2022-12-25T20:50:02.235Z,8.20
2022-12-25T20:52:29.113Z,8.20
2022-12-25T20:54:55.948Z,8.20
2022-12-25T20:57:22.955Z,8.10
2022-12-25T20:59:49.946Z,8.10
2022-12-25T21:02:33.341Z,8.20
2022-12-25T21:05:02.305Z,8.20
2022-12-25T21:07:29.208Z,8.20
2022-12-25T21:09:56.127Z,8.20
2022-12-25T21:12:23.013Z,8.20
2022-12-25T21:14:49.874Z,8.10
2022-12-25T21:17:16.813Z,8.10
2022-12-25T21:19:43.767Z,8.10
2022-12-25T21:22:10.660Z,8.10
2022-12-25T21:24:37.538Z,8.10
2022-12-25T21:27:04.484Z,8.10
2022-12-25T21:29:31.473Z,8.10
2022-12-25T21:32:16.871Z,8.20
2022-12-25T21:34:43.703Z,8.20
2022-12-25T21:37:10.606Z,8.20
2022-12-25T21:39:37.574Z,8.30
2022-12-25T21:42:04.701Z,8.20
2022-12-25T21:44:36.096Z,8.20
2022-12-25T21:47:03.311Z,8.20
2022-12-25T21:49:48.727Z,8.30
2022-12-25T21:52:15.605Z,8.30
2022-12-25T21:54:42.677Z,8.30
2022-12-25T21:57:09.572Z,8.30
2022-12-25T21:59:36.553Z,8.40
2022-12-25T22:02:11.460Z,8.40
2022-12-25T22:04:38.973Z,8.50
2022-12-25T22:07:17.960Z,8.50
2022-12-25T22:09:47.139Z,8.50
2022-12-25T22:12:34.789Z,8.40
2022-12-25T22:15:06.110Z,8.40
2022-12-25T22:17:57.719Z,8.40
2022-12-25T22:20:34.592Z,8.40
2022-12-25T22:23:02.107Z,8.40
2022-12-25T22:25:29.089Z,8.40
2022-12-25T22:27:56.015Z,8.40
2022-12-25T22:30:27.911Z,8.40
2022-12-25T22:32:55.494Z,8.40
2022-12-25T22:35:22.962Z,8.40
2022-12-25T22:37:50.103Z,8.40
2022-12-25T22:40:19.761Z,8.40
2022-12-25T22:42:47.042Z,8.40
2022-12-25T22:45:14.348Z,8.30
2022-12-25T22:47:41.876Z,8.30
2022-12-25T22:50:09.842Z,8.30
2022-12-25T22:52:37.239Z,8.30
2022-12-25T22:55:05.650Z,8.30
2022-12-25T22:57:32.494Z,8.30
2022-12-25T22:59:59.579Z,8.30
2022-12-25T23:02:26.861Z,8.30
2022-12-25T23:04:53.998Z,8.30
2022-12-25T23:07:20.986Z,8.30
2022-12-25T23:09:47.893Z,8.20
2022-12-25T23:12:33.314Z,8.30
2022-12-25T23:15:00.495Z,8.30
2022-12-25T23:17:46.074Z,8.30
2022-12-25T23:20:33.341Z,8.30
2022-12-25T23:23:18.773Z,8.30
2022-12-25T23:26:04.559Z,8.30
2022-12-25T23:28:49.817Z,8.20
2022-12-25T23:31:16.849Z,8.20
2022-12-25T23:33:43.947Z,8.20
2022-12-25T23:36:10.925Z,8.20
2022-12-25T23:38:37.820Z,8.20
2022-12-25T23:41:04.723Z,8.20
2022-12-25T23:43:31.850Z,8.20
2022-12-25T23:45:58.690Z,8.20
2022-12-25T23:48:25.602Z,8.20
2022-12-25T23:50:52.511Z,8.20
2022-12-25T23:53:19.424Z,8.20
2022-12-25T23:55:51.528Z,8.20
2022-12-25T23:58:22.023Z,8.20
